createdAt,value
2024-02-22T00:01:44.360Z,9.20
2024-02-22T00:04:11.738Z,9.10
2024-02-22T00:06:39.573Z,8.90
2024-02-22T00:09:06.550Z,9.10
2024-02-22T00:11:33.677Z,9.10
2024-02-22T00:14:00.743Z,9.20
2024-02-22T00:16:27.902Z,9.30
2024-02-22T00:18:54.830Z,9.20
2024-02-22T00:21:21.746Z,9.20
2024-02-22T00:23:49.309Z,9.20
2024-02-22T00:26:16.467Z,9.20
2024-02-22T00:28:43.690Z,9.40
2024-02-22T00:31:10.675Z,9.40
2024-02-22T00:33:37.499Z,9.20
2024-02-22T00:36:04.865Z,9.20
2024-02-22T00:38:31.717Z,9.30
2024-02-22T00:40:58.554Z,9.40
2024-02-22T00:43:25.495Z,9.30
2024-02-22T00:45:53.293Z,9.30
2024-02-22T00:48:20.302Z,9.30
2024-02-22T00:50:47.331Z,9.30
2024-02-22T00:53:14.350Z,9.30
2024-02-22T00:55:41.320Z,9.30
2024-02-22T00:58:10.715Z,9.40
2024-02-22T01:00:37.952Z,9.50
2024-02-22T01:03:08.814Z,9.60
2024-02-22T01:05:35.781Z,9.70
2024-02-22T01:08:05.141Z,9.70
2024-02-22T01:10:32.236Z,9.70
2024-02-22T01:12:59.160Z,9.70
2024-02-22T01:15:26.040Z,9.80
2024-02-22T01:17:52.921Z,9.60
2024-02-22T01:20:20.393Z,9.70
2024-02-22T01:22:47.733Z,9.60
2024-02-22T01:25:14.714Z,9.70
2024-02-22T01:27:41.644Z,9.80
2024-02-22T01:30:08.721Z,9.90
2024-02-22T01:32:37.053Z,9.90
2024-02-22T01:35:05.459Z,9.80
2024-02-22T01:37:32.982Z,9.80
2024-02-22T01:39:59.921Z,9.70
2024-02-22T01:42:27.715Z,9.70
2024-02-22T01:44:54.525Z,9.70
2024-02-22T01:47:21.681Z,9.70
2024-02-22T01:49:49.634Z,9.70
2024-02-22T01:52:16.600Z,9.70
2024-02-22T01:54:43.517Z,9.70
2024-02-22T01:57:10.954Z,9.80
2024-02-22T01:59:37.863Z,9.80
2024-02-22T02:02:05.584Z,9.80
2024-02-22T02:04:32.978Z,9.80
2024-02-22T02:07:00.392Z,9.80
2024-02-22T02:09:27.602Z,9.90
2024-02-22T02:11:54.532Z,9.90
2024-02-22T02:14:21.603Z,9.90
2024-02-22T02:16:48.663Z,9.90
2024-02-22T02:19:20.654Z,9.90
2024-02-22T02:22:21.538Z,10.00
2024-02-22T02:25:04.462Z,10.10
2024-02-22T02:27:32.244Z,9.70
2024-02-22T02:29:59.109Z,9.70
2024-02-22T02:32:26.055Z,9.60
2024-02-22T02:34:53.059Z,9.60
2024-02-22T02:37:19.909Z,9.80
2024-02-22T02:39:46.767Z,9.90
2024-02-22T02:42:14.695Z,10.10
2024-02-22T02:44:41.626Z,10.10
2024-02-22T02:47:09.907Z,10.10
2024-02-22T02:49:36.899Z,10.10
2024-02-22T02:52:04.637Z,10.10
2024-02-22T02:54:31.640Z,10.20
2024-02-22T02:56:58.537Z,10.20
2024-02-22T02:59:25.407Z,10.10
2024-02-22T03:01:52.409Z,10.00
2024-02-22T03:04:20.102Z,9.80
2024-02-22T03:06:47.431Z,9.90
2024-02-22T03:09:14.404Z,10.00
2024-02-22T03:11:41.476Z,10.10
2024-02-22T03:14:10.768Z,10.10
2024-02-22T03:16:40.851Z,10.10
2024-02-22T03:19:07.942Z,10.10
2024-02-22T03:21:35.134Z,10.20
2024-02-22T03:24:02.112Z,10.10
2024-02-22T03:26:28.928Z,10.00
2024-02-22T03:28:55.944Z,9.80
2024-02-22T03:31:23.748Z,9.90
2024-02-22T03:33:50.898Z,9.80
2024-02-22T03:36:17.828Z,9.90
2024-02-22T03:38:44.726Z,9.90
2024-02-22T03:41:21.881Z,10.00
2024-02-22T03:43:49.010Z,10.00
2024-02-22T03:46:16.031Z,10.00
2024-02-22T03:48:42.884Z,10.10
2024-02-22T03:51:09.798Z,10.20
2024-02-22T03:53:36.612Z,10.10
2024-02-22T03:56:04.488Z,10.10
2024-02-22T03:58:31.376Z,10.10
2024-02-22T04:00:59.148Z,10.10
2024-02-22T04:03:26.760Z,10.00
2024-02-22T04:05:53.712Z,10.00
2024-02-22T04:08:20.677Z,10.10
2024-02-22T04:10:47.718Z,10.00
2024-02-22T04:13:14.711Z,10.00
2024-02-22T04:15:41.634Z,10.00
2024-02-22T04:18:08.832Z,10.00
2024-02-22T04:20:35.918Z,9.90
2024-02-22T04:23:02.789Z,9.90
2024-02-22T04:25:29.685Z,9.80
2024-02-22T04:27:56.666Z,9.70
2024-02-22T04:30:23.647Z,9.60
2024-02-22T04:32:50.910Z,9.50
2024-02-22T04:35:18.158Z,9.50
2024-02-22T04:37:45.323Z,9.50
2024-02-22T04:40:12.469Z,9.70
2024-02-22T04:42:39.446Z,9.70
2024-02-22T04:45:07.724Z,9.70
2024-02-22T04:47:38.800Z,9.70
2024-02-22T04:50:07.140Z,9.60
2024-02-22T04:52:34.084Z,9.60
2024-02-22T04:55:04.450Z,9.70
2024-02-22T04:57:31.631Z,9.70
2024-02-22T04:59:58.512Z,9.60
2024-02-22T05:02:25.459Z,9.60
2024-02-22T05:04:52.469Z,9.60
2024-02-22T05:07:19.453Z,9.70
2024-02-22T05:09:46.590Z,9.70
2024-02-22T05:12:13.515Z,9.70
2024-02-22T05:14:45.015Z,9.60
2024-02-22T05:17:12.952Z,9.60
2024-02-22T05:19:40.985Z,9.50
2024-02-22T05:22:08.103Z,9.40
2024-02-22T05:24:35.483Z,9.40
2024-02-22T05:27:02.390Z,9.40
2024-02-22T05:29:29.238Z,9.40
2024-02-22T05:31:59.400Z,9.40
2024-02-22T05:34:26.796Z,9.40
2024-02-22T05:36:53.917Z,9.40
2024-02-22T05:39:21.112Z,9.40
2024-02-22T05:41:48.373Z,9.40
2024-02-22T05:44:18.112Z,9.30
2024-02-22T05:46:45.256Z,9.40
2024-02-22T05:49:12.228Z,9.50
2024-02-22T05:51:39.235Z,9.50
2024-02-22T05:54:06.122Z,9.50
2024-02-22T05:56:33.398Z,9.50
2024-02-22T05:59:00.352Z,9.40
2024-02-22T06:01:27.437Z,9.20
2024-02-22T06:03:54.412Z,9.20
2024-02-22T06:06:21.300Z,9.20
2024-02-22T06:08:48.235Z,9.30
2024-02-22T06:11:16.705Z,9.40
2024-02-22T06:13:44.163Z,9.30
2024-02-22T06:16:11.508Z,9.20
2024-02-22T06:18:38.832Z,9.20
2024-02-22T06:21:07.963Z,9.20
2024-02-22T06:23:35.577Z,9.30
2024-02-22T06:26:05.116Z,9.40
2024-02-22T06:28:33.079Z,9.30
2024-02-22T06:30:59.970Z,9.30
2024-02-22T06:33:26.923Z,9.40
2024-02-22T06:35:54.068Z,9.50
2024-02-22T06:38:20.956Z,9.60
2024-02-22T06:40:52.538Z,9.50
2024-02-22T06:43:20.065Z,9.50
2024-02-22T06:45:47.134Z,9.50
2024-02-22T06:48:14.326Z,9.50
2024-02-22T06:50:41.383Z,9.60
2024-02-22T06:53:09.051Z,9.50
2024-02-22T06:55:36.228Z,9.40
2024-02-22T06:58:04.409Z,9.60
2024-02-22T07:00:34.135Z,9.60
2024-02-22T07:03:04.604Z,9.70
2024-02-22T07:05:32.914Z,9.70
2024-02-22T07:08:00.186Z,9.70
2024-02-22T07:10:27.307Z,9.80
2024-02-22T07:12:54.536Z,9.70
2024-02-22T07:15:21.421Z,9.80
2024-02-22T07:17:48.534Z,9.80
2024-02-22T07:20:15.795Z,9.80
2024-02-22T07:22:44.492Z,9.90
2024-02-22T07:25:14.973Z,9.90
2024-02-22T07:27:41.830Z,9.90
2024-02-22T07:30:09.992Z,9.90
2024-02-22T07:32:37.612Z,10.00
2024-02-22T07:35:04.994Z,10.00
2024-02-22T07:37:32.091Z,10.00
2024-02-22T07:39:58.946Z,10.10
2024-02-22T07:42:25.880Z,10.00
2024-02-22T07:44:52.893Z,10.00
2024-02-22T07:47:19.992Z,10.10
2024-02-22T07:49:46.956Z,10.10
2024-02-22T07:52:14.179Z,10.20
2024-02-22T07:54:42.057Z,10.10
2024-02-22T07:57:09.159Z,10.20
2024-02-22T07:59:36.052Z,10.30
2024-02-22T08:02:03.689Z,10.20
2024-02-22T08:04:30.776Z,10.20
2024-02-22T08:06:58.061Z,10.20
2024-02-22T08:09:25.550Z,10.20
2024-02-22T08:11:52.996Z,10.20
2024-02-22T08:14:20.136Z,10.10
2024-02-22T08:16:47.974Z,10.10
2024-02-22T08:19:15.058Z,9.90
2024-02-22T08:21:42.435Z,10.10
2024-02-22T08:24:11.737Z,10.20
2024-02-22T08:26:38.690Z,10.10
2024-02-22T08:29:05.738Z,10.20
2024-02-22T08:31:32.856Z,10.30
2024-02-22T08:33:59.941Z,10.20
2024-02-22T08:36:26.917Z,10.20
2024-02-22T08:38:53.713Z,10.20
2024-02-22T08:41:22.945Z,10.20
2024-02-22T08:43:49.837Z,10.30
2024-02-22T08:46:16.734Z,10.30
2024-02-22T08:48:43.769Z,10.40
2024-02-22T08:51:12.435Z,10.40
2024-02-22T08:53:39.724Z,10.50
2024-02-22T08:56:10.265Z,10.50
2024-02-22T08:58:40.214Z,10.60
2024-02-22T09:01:08.181Z,10.50
2024-02-22T09:03:35.665Z,10.70
2024-02-22T09:06:02.793Z,10.90
2024-02-22T09:08:29.661Z,10.90
2024-02-22T09:10:56.707Z,10.70
2024-02-22T09:13:23.694Z,10.90
2024-02-22T09:15:50.927Z,11.00
2024-02-22T09:18:19.124Z,11.00
2024-02-22T09:20:50.947Z,10.90
2024-02-22T09:23:18.610Z,10.90
2024-02-22T09:25:45.650Z,10.90
2024-02-22T09:28:13.110Z,10.90
2024-02-22T09:30:40.076Z,11.00
2024-02-22T09:33:08.986Z,11.20
2024-02-22T09:35:37.170Z,11.30
2024-02-22T09:38:06.318Z,11.40
2024-02-22T09:40:34.918Z,11.50
2024-02-22T09:43:02.592Z,11.40
2024-02-22T09:45:30.468Z,11.30
2024-02-22T09:47:57.858Z,11.50
2024-02-22T09:50:25.819Z,11.60
2024-02-22T09:52:53.085Z,11.60
2024-02-22T09:55:21.057Z,11.40
2024-02-22T09:57:49.689Z,11.50
2024-02-22T10:00:19.919Z,11.60
2024-02-22T10:02:47.855Z,11.50
2024-02-22T10:05:15.446Z,11.60
2024-02-22T10:07:42.586Z,11.20
2024-02-22T10:10:09.768Z,11.40
2024-02-22T10:12:38.283Z,11.60
2024-02-22T10:15:12.439Z,11.60
2024-02-22T10:17:40.114Z,11.70
2024-02-22T10:20:08.920Z,11.80
2024-02-22T10:22:37.783Z,11.70
2024-02-22T10:25:15.960Z,11.90
2024-02-22T10:27:49.417Z,11.70
2024-02-22T10:30:17.408Z,11.80
2024-02-22T10:32:46.230Z,11.80
2024-02-22T10:35:14.464Z,11.70
2024-02-22T10:37:43.332Z,11.70
2024-02-22T10:40:12.234Z,11.60
2024-02-22T10:42:40.624Z,11.20
2024-02-22T10:45:09.054Z,11.30
2024-02-22T10:47:38.461Z,11.30
2024-02-22T10:50:08.992Z,11.30
2024-02-22T10:52:42.675Z,11.30
2024-02-22T10:55:15.423Z,11.20
2024-02-22T10:57:46.195Z,11.30
2024-02-22T11:00:15.994Z,11.30
2024-02-22T11:02:45.041Z,11.40
2024-02-22T11:05:13.410Z,11.30
2024-02-22T11:07:59.387Z,11.30
2024-02-22T11:10:26.827Z,11.20
2024-02-22T11:12:53.767Z,11.10
2024-02-22T11:15:26.296Z,11.20
2024-02-22T11:17:59.096Z,11.40
2024-02-22T11:20:37.355Z,11.50
2024-02-22T11:23:14.975Z,11.60
2024-02-22T11:25:42.502Z,11.80
2024-02-22T11:28:10.834Z,11.90
2024-02-22T11:30:37.795Z,12.00
2024-02-22T11:33:07.941Z,12.00
2024-02-22T11:35:35.075Z,12.20
2024-02-22T11:38:07.254Z,12.50
2024-02-22T11:40:36.332Z,12.70
2024-02-22T11:43:04.459Z,13.60
2024-02-22T11:45:32.533Z,14.30
2024-02-22T11:47:59.969Z,14.40
2024-02-22T11:50:32.024Z,13.70
2024-02-22T11:53:00.766Z,12.80
2024-02-22T11:55:28.380Z,12.70
2024-02-22T11:57:55.524Z,12.80
2024-02-22T12:00:22.419Z,12.70
2024-02-22T12:02:49.517Z,12.70
2024-02-22T12:05:19.018Z,12.60
2024-02-22T12:07:47.264Z,12.40
2024-02-22T12:10:14.335Z,12.30
2024-02-22T12:12:41.346Z,12.10
2024-02-22T12:15:11.335Z,12.10
2024-02-22T12:17:40.179Z,12.50
2024-02-22T12:20:13.979Z,12.50
2024-02-22T12:22:48.163Z,12.60
2024-02-22T12:25:15.231Z,12.80
2024-02-22T12:27:42.373Z,12.70
2024-02-22T12:30:09.914Z,12.70
2024-02-22T12:32:48.347Z,12.90
2024-02-22T12:35:16.524Z,12.80
2024-02-22T12:37:43.392Z,12.90
2024-02-22T12:40:12.856Z,12.80
2024-02-22T12:42:39.667Z,12.70
2024-02-22T12:45:06.874Z,12.70
2024-02-22T12:47:34.652Z,12.60
2024-02-22T12:50:02.038Z,12.80
2024-02-22T12:52:28.984Z,12.80
2024-02-22T12:54:56.237Z,12.70
2024-02-22T12:57:23.121Z,12.80
2024-02-22T12:59:51.276Z,12.50
2024-02-22T13:02:18.235Z,12.40
2024-02-22T13:04:45.222Z,12.40
2024-02-22T13:07:14.383Z,12.50
2024-02-22T13:09:41.739Z,12.50
2024-02-22T13:12:08.895Z,12.50
2024-02-22T13:14:35.845Z,13.00
2024-02-22T13:17:02.808Z,13.50
2024-02-22T13:19:29.613Z,14.30
2024-02-22T13:21:56.887Z,14.50
2024-02-22T13:24:24.534Z,14.00
2024-02-22T13:26:51.375Z,14.60
2024-02-22T13:29:18.315Z,14.70
2024-02-22T13:31:45.568Z,14.10
2024-02-22T13:34:12.547Z,13.60
2024-02-22T13:36:39.540Z,13.90
2024-02-22T13:39:08.808Z,14.50
2024-02-22T13:41:35.918Z,14.40
2024-02-22T13:44:11.401Z,14.70
2024-02-22T13:46:42.942Z,14.10
2024-02-22T13:49:17.868Z,14.40
2024-02-22T13:51:47.543Z,14.90
2024-02-22T13:54:15.149Z,14.50
2024-02-22T13:56:43.877Z,14.70
2024-02-22T13:59:12.720Z,14.80
2024-02-22T14:01:40.383Z,15.20
2024-02-22T14:04:07.748Z,15.70
2024-02-22T14:06:34.890Z,15.80
2024-02-22T14:09:02.235Z,16.10
2024-02-22T14:11:29.187Z,16.30
2024-02-22T14:13:56.063Z,16.30
2024-02-22T14:16:23.009Z,16.20
2024-02-22T14:18:50.966Z,16.30
2024-02-22T14:21:19.517Z,16.40
2024-02-22T14:23:49.423Z,16.30
2024-02-22T14:26:17.880Z,16.10
2024-02-22T14:28:45.010Z,15.90
2024-02-22T14:31:11.864Z,15.90
2024-02-22T14:33:39.462Z,15.70
2024-02-22T14:36:06.634Z,14.90
2024-02-22T14:38:34.777Z,13.80
2024-02-22T14:41:01.669Z,12.90
2024-02-22T14:43:28.558Z,12.70
2024-02-22T14:45:55.475Z,12.50
2024-02-22T14:48:23.516Z,12.40
2024-02-22T14:50:50.464Z,12.60
2024-02-22T14:53:17.454Z,12.60
2024-02-22T14:55:46.125Z,12.50
2024-02-22T14:58:13.167Z,12.40
2024-02-22T15:00:40.570Z,12.30
2024-02-22T15:03:07.390Z,12.30
2024-02-22T15:05:34.422Z,12.30
2024-02-22T15:08:01.821Z,12.50
2024-02-22T15:10:28.740Z,12.40
2024-02-22T15:12:55.590Z,12.20
2024-02-22T15:15:22.439Z,12.20
2024-02-22T15:17:50.024Z,12.10
2024-02-22T15:20:16.940Z,12.10
2024-02-22T15:22:43.866Z,12.20
2024-02-22T15:25:14.729Z,12.30
2024-02-22T15:27:43.838Z,12.30
2024-02-22T15:30:11.342Z,12.40
2024-02-22T15:32:38.882Z,12.50
2024-02-22T15:35:06.594Z,12.50
2024-02-22T15:37:33.731Z,12.50
2024-02-22T15:40:01.018Z,12.50
2024-02-22T15:42:27.922Z,12.40
2024-02-22T15:44:55.162Z,12.40
2024-02-22T15:47:22.230Z,12.50
2024-02-22T15:49:49.218Z,12.40
2024-02-22T15:52:16.097Z,12.40
2024-02-22T15:54:42.900Z,12.40
2024-02-22T15:57:12.588Z,12.50
2024-02-22T15:59:39.724Z,12.40
2024-02-22T16:02:07.019Z,12.30
2024-02-22T16:04:34.003Z,12.40
2024-02-22T16:07:00.984Z,12.40
2024-02-22T16:09:28.675Z,12.40
2024-02-22T16:11:57.287Z,12.40
2024-02-22T16:14:25.242Z,12.40
2024-02-22T16:16:53.444Z,12.40
2024-02-22T16:19:20.440Z,12.40
2024-02-22T16:21:47.333Z,12.40
2024-02-22T16:24:14.428Z,12.40
2024-02-22T16:26:41.285Z,12.30
2024-02-22T16:29:11.057Z,12.30
2024-02-22T16:31:38.344Z,12.20
2024-02-22T16:34:05.318Z,12.20
2024-02-22T16:36:32.316Z,12.20
2024-02-22T16:39:06.697Z,12.30
2024-02-22T16:41:35.806Z,12.30
2024-02-22T16:44:02.867Z,12.30
2024-02-22T16:46:29.776Z,12.20
2024-02-22T16:48:56.788Z,12.20
2024-02-22T16:51:24.110Z,12.20
2024-02-22T16:53:51.445Z,12.10
2024-02-22T16:56:18.717Z,12.10
2024-02-22T16:58:45.794Z,11.90
2024-02-22T17:01:12.834Z,11.80
2024-02-22T17:03:39.860Z,11.70
2024-02-22T17:06:06.910Z,11.70
2024-02-22T17:08:34.215Z,11.60
2024-02-22T17:11:01.771Z,11.70
2024-02-22T17:13:31.261Z,11.60
2024-02-22T17:15:59.372Z,11.70
2024-02-22T17:18:27.925Z,11.80
2024-02-22T17:20:56.271Z,11.70
2024-02-22T17:23:23.447Z,11.70
2024-02-22T17:25:50.467Z,11.70
2024-02-22T17:28:18.224Z,11.80
2024-02-22T17:30:45.066Z,11.70
2024-02-22T17:33:12.073Z,11.60
2024-02-22T17:35:39.111Z,11.70
2024-02-22T17:38:07.548Z,11.70
2024-02-22T17:40:34.759Z,11.60
2024-02-22T17:43:01.641Z,11.70
2024-02-22T17:45:28.603Z,11.80
2024-02-22T17:47:57.145Z,11.80
2024-02-22T17:50:24.383Z,12.60
2024-02-22T17:52:51.274Z,13.40
2024-02-22T17:55:18.219Z,13.90
2024-02-22T17:57:45.175Z,14.20
2024-02-22T18:00:13.538Z,14.10
2024-02-22T18:02:40.480Z,14.50
2024-02-22T18:05:07.754Z,14.10
2024-02-22T18:07:35.027Z,13.10
2024-02-22T18:10:01.926Z,12.60
2024-02-22T18:12:28.769Z,12.30
2024-02-22T18:14:55.898Z,12.20
2024-02-22T18:17:22.840Z,12.30
2024-02-22T18:19:50.129Z,12.20
2024-02-22T18:22:17.756Z,12.00
2024-02-22T18:24:44.737Z,11.90
2024-02-22T18:27:11.784Z,11.90
2024-02-22T18:29:39.464Z,11.70
2024-02-22T18:32:07.190Z,11.60
2024-02-22T18:34:34.492Z,11.50
2024-02-22T18:37:03.378Z,11.50
2024-02-22T18:39:32.204Z,11.40
2024-02-22T18:41:59.066Z,11.50
2024-02-22T18:44:29.162Z,11.70
2024-02-22T18:46:56.558Z,11.70
2024-02-22T18:49:23.771Z,11.80
2024-02-22T18:51:54.019Z,11.80
2024-02-22T18:54:21.419Z,11.80
2024-02-22T18:56:49.320Z,11.90
2024-02-22T18:59:18.622Z,11.80
2024-02-22T19:01:47.386Z,12.00
2024-02-22T19:04:15.524Z,12.00
2024-02-22T19:06:42.665Z,11.80
2024-02-22T19:09:11.016Z,11.70
2024-02-22T19:11:38.159Z,11.80
2024-02-22T19:14:06.432Z,11.90
2024-02-22T19:16:33.444Z,11.90
2024-02-22T19:19:01.678Z,11.90
2024-02-22T19:21:33.129Z,11.90
2024-02-22T19:24:00.077Z,11.90
2024-02-22T19:26:27.018Z,11.90
2024-02-22T19:28:54.761Z,11.80
2024-02-22T19:31:21.733Z,11.90
2024-02-22T19:33:48.829Z,11.90
2024-02-22T19:36:15.958Z,11.70
2024-02-22T19:38:44.526Z,11.70
2024-02-22T19:41:11.565Z,11.70
2024-02-22T19:43:39.447Z,11.70
2024-02-22T19:46:07.489Z,11.60
2024-02-22T19:48:34.882Z,11.70
2024-02-22T19:51:01.767Z,11.70
2024-02-22T19:53:29.648Z,11.70
2024-02-22T19:55:57.996Z,11.80
2024-02-22T19:58:24.894Z,11.80
2024-02-22T20:00:53.031Z,11.80
2024-02-22T20:03:19.924Z,11.90
2024-02-22T20:05:46.885Z,11.90
2024-02-22T20:08:13.912Z,11.90
2024-02-22T20:10:42.097Z,11.80
2024-02-22T20:13:11.150Z,11.90
2024-02-22T20:15:38.006Z,11.80
2024-02-22T20:18:05.400Z,11.80
2024-02-22T20:20:32.439Z,11.90
2024-02-22T20:22:59.830Z,11.80
2024-02-22T20:25:26.672Z,11.90
2024-02-22T20:27:55.221Z,11.70
2024-02-22T20:30:22.230Z,11.60
2024-02-22T20:32:49.133Z,11.50
2024-02-22T20:35:22.198Z,11.40
2024-02-22T20:37:52.794Z,11.30
2024-02-22T20:40:21.032Z,11.50
2024-02-22T20:42:48.152Z,11.50
2024-02-22T20:45:15.830Z,11.50
2024-02-22T20:47:43.067Z,11.50
2024-02-22T20:50:11.329Z,11.30
2024-02-22T20:52:38.382Z,11.10
2024-02-22T20:55:07.331Z,11.00
2024-02-22T20:57:34.222Z,11.10
2024-02-22T21:00:02.182Z,11.20
2024-02-22T21:02:30.471Z,11.30
2024-02-22T21:04:58.118Z,11.20
2024-02-22T21:07:25.195Z,11.20
2024-02-22T21:09:52.581Z,11.00
2024-02-22T21:12:19.690Z,11.20
2024-02-22T21:14:46.588Z,11.20
2024-02-22T21:17:13.591Z,11.30
2024-02-22T21:19:40.525Z,11.20
2024-02-22T21:22:07.365Z,11.30
2024-02-22T21:24:34.196Z,11.10
2024-02-22T21:27:01.047Z,11.40
2024-02-22T21:29:27.947Z,11.30
2024-02-22T21:31:54.853Z,11.30
2024-02-22T21:34:21.782Z,11.40
2024-02-22T21:36:48.698Z,11.40
2024-02-22T21:39:15.794Z,11.60
2024-02-22T21:41:43.142Z,11.40
2024-02-22T21:44:09.982Z,11.40
2024-02-22T21:46:36.998Z,11.40
2024-02-22T21:49:04.475Z,11.30
2024-02-22T21:51:31.348Z,11.20
2024-02-22T21:53:58.459Z,11.30
2024-02-22T21:56:25.326Z,11.20
2024-02-22T21:58:52.198Z,11.10
2024-02-22T22:01:19.109Z,11.20
2024-02-22T22:03:46.457Z,11.20
2024-02-22T22:06:13.461Z,11.10
2024-02-22T22:08:40.326Z,11.10
2024-02-22T22:11:08.656Z,11.20
2024-02-22T22:13:41.506Z,11.20
2024-02-22T22:16:09.884Z,11.20
2024-02-22T22:18:36.935Z,11.20
2024-02-22T22:21:17.070Z,11.10
2024-02-22T22:23:52.199Z,11.00
2024-02-22T22:26:19.620Z,10.90
2024-02-22T22:28:46.702Z,10.90
2024-02-22T22:31:13.615Z,10.90
2024-02-22T22:33:44.445Z,10.90
2024-02-22T22:36:14.828Z,10.90
2024-02-22T22:38:41.801Z,10.90
2024-02-22T22:41:10.610Z,11.00
2024-02-22T22:43:37.568Z,10.90
2024-02-22T22:46:04.504Z,11.00
2024-02-22T22:48:31.611Z,10.90
2024-02-22T22:50:58.537Z,11.00
2024-02-22T22:53:25.464Z,10.90
2024-02-22T22:55:52.515Z,11.00
2024-02-22T22:58:19.410Z,10.90
2024-02-22T23:00:46.238Z,10.90
2024-02-22T23:03:13.133Z,10.70
2024-02-22T23:05:40.075Z,10.80
2024-02-22T23:08:07.471Z,10.90
2024-02-22T23:10:34.397Z,10.90
2024-02-22T23:13:01.285Z,10.80
2024-02-22T23:15:28.088Z,10.80
2024-02-22T23:17:54.966Z,10.80
2024-02-22T23:20:22.126Z,10.90
2024-02-22T23:22:49.042Z,10.80
2024-02-22T23:25:18.234Z,10.90
2024-02-22T23:27:45.659Z,10.80
2024-02-22T23:30:12.997Z,10.80
2024-02-22T23:32:40.037Z,10.90
2024-02-22T23:35:12.421Z,10.80
2024-02-22T23:37:40.762Z,10.90
2024-02-22T23:40:08.283Z,11.00
2024-02-22T23:42:35.091Z,11.00
2024-02-22T23:45:01.919Z,10.90
2024-02-22T23:47:28.853Z,10.90
2024-02-22T23:49:55.805Z,10.90
2024-02-22T23:52:22.641Z,10.90
2024-02-22T23:54:49.454Z,10.80
2024-02-22T23:57:16.311Z,10.90
2024-02-22T23:59:43.142Z,10.80
